sensor_id;sensor_type;location;lat;lon;timestamp;noise_LAeq;noise_LA_min;noise_LA_max;noise_LA01;noise_LA95
77729;Laerm;68312;53.502;10.030;2023-03-23T00:01:28;51.01;46.30;70.67;;
77729;Laerm;68312;53.502;10.030;2023-03-23T00:03:58;54.76;45.77;88.48;;
77729;Laerm;68312;53.502;10.030;2023-03-23T00:06:27;58.76;42.41;94.58;;
77729;Laerm;68312;53.502;10.030;2023-03-23T00:08:58;49.61;42.86;78.78;;
77729;Laerm;68312;53.502;10.030;2023-03-23T00:11:29;48.35;44.28;68.89;;
77729;Laerm;68312;53.502;10.030;2023-03-23T00:13:58;49.96;42.56;76.39;;
77729;Laerm;68312;53.502;10.030;2023-03-23T00:16:32;47.13;43.24;65.55;;
77729;Laerm;68312;53.502;10.030;2023-03-23T00:19:06;49.09;43.62;74.47;;
77729;Laerm;68312;53.502;10.030;2023-03-23T00:21:37;50.19;43.25;77.24;;
77729;Laerm;68312;53.502;10.030;2023-03-23T00:24:24;46.34;43.08;55.46;;
77729;Laerm;68312;53.502;10.030;2023-03-23T00:26:49;50.00;43.94;76.50;;
77729;Laerm;68312;53.502;10.030;2023-03-23T00:29:21;51.73;44.70;79.59;;
77729;Laerm;68312;53.502;10.030;2023-03-23T00:31:50;51.84;44.09;77.22;;
77729;Laerm;68312;53.502;10.030;2023-03-23T00:34:21;50.22;44.65;73.31;;
77729;Laerm;68312;53.502;10.030;2023-03-23T00:36:51;52.68;49.23;70.80;;
77729;Laerm;68312;53.502;10.030;2023-03-23T00:39:19;50.80;45.07;74.86;;
77729;Laerm;68312;53.502;10.030;2023-03-23T00:41:46;48.28;43.74;72.77;;
77729;Laerm;68312;53.502;10.030;2023-03-23T00:44:13;51.26;46.71;79.20;;
77729;Laerm;68312;53.502;10.030;2023-03-23T00:46:44;49.85;45.20;78.24;;
77729;Laerm;68312;53.502;10.030;2023-03-23T00:49:16;51.13;43.12;78.11;;
77729;Laerm;68312;53.502;10.030;2023-03-23T00:51:43;52.77;41.90;85.13;;
77729;Laerm;68312;53.502;10.030;2023-03-23T00:54:10;48.97;43.78;73.63;;
77729;Laerm;68312;53.502;10.030;2023-03-23T00:56:38;48.55;42.90;77.46;;
77729;Laerm;68312;53.502;10.030;2023-03-23T00:59:06;52.92;46.50;71.48;;
77729;Laerm;68312;53.502;10.030;2023-03-23T01:01:33;55.89;52.24;68.26;;
77729;Laerm;68312;53.502;10.030;2023-03-23T01:04:00;51.96;44.85;64.73;;
77729;Laerm;68312;53.502;10.030;2023-03-23T01:06:28;49.88;45.11;56.52;;
77729;Laerm;68312;53.502;10.030;2023-03-23T01:08:56;49.86;44.28;78.50;;
77729;Laerm;68312;53.502;10.030;2023-03-23T01:11:23;50.64;45.30;71.87;;
77729;Laerm;68312;53.502;10.030;2023-03-23T01:13:49;52.03;45.32;79.82;;
77729;Laerm;68312;53.502;10.030;2023-03-23T01:16:18;56.38;47.77;90.72;;
77729;Laerm;68312;53.502;10.030;2023-03-23T01:18:43;51.38;47.10;68.36;;
77729;Laerm;68312;53.502;10.030;2023-03-23T01:21:14;55.10;48.55;86.69;;
77729;Laerm;68312;53.502;10.030;2023-03-23T01:23:45;51.33;47.09;72.24;;
77729;Laerm;68312;53.502;10.030;2023-03-23T01:26:22;53.18;45.25;83.88;;
77729;Laerm;68312;53.502;10.030;2023-03-23T01:28:49;50.74;45.54;71.68;;
77729;Laerm;68312;53.502;10.030;2023-03-23T01:31:23;50.49;45.33;69.62;;
77729;Laerm;68312;53.502;10.030;2023-03-23T01:33:50;50.56;46.13;76.26;;
77729;Laerm;68312;53.502;10.030;2023-03-23T01:36:27;52.74;45.33;82.04;;
77729;Laerm;68312;53.502;10.030;2023-03-23T01:38:54;50.78;46.32;79.06;;
77729;Laerm;68312;53.502;10.030;2023-03-23T01:41:21;56.40;45.55;87.87;;
77729;Laerm;68312;53.502;10.030;2023-03-23T01:46:49;59.29;50.57;89.73;;
77729;Laerm;68312;53.502;10.030;2023-03-23T01:49:24;55.54;46.53;83.88;;
77729;Laerm;68312;53.502;10.030;2023-03-23T01:51:59;55.83;46.62;87.64;;
77729;Laerm;68312;53.502;10.030;2023-03-23T01:54:28;55.23;48.42;84.39;;
77729;Laerm;68312;53.502;10.030;2023-03-23T01:57:02;54.59;47.74;84.45;;
77729;Laerm;68312;53.502;10.030;2023-03-23T01:59:32;53.98;47.45;84.15;;
77729;Laerm;68312;53.502;10.030;2023-03-23T02:01:58;55.36;46.43;85.19;;
77729;Laerm;68312;53.502;10.030;2023-03-23T02:04:27;51.10;46.97;73.78;;
77729;Laerm;68312;53.502;10.030;2023-03-23T02:06:55;61.16;46.84;90.07;;
77729;Laerm;68312;53.502;10.030;2023-03-23T02:09:25;55.03;47.20;85.13;;
77729;Laerm;68312;53.502;10.030;2023-03-23T02:11:53;51.28;46.21;78.31;;
77729;Laerm;68312;53.502;10.030;2023-03-23T02:14:21;57.52;47.51;86.37;;
77729;Laerm;68312;53.502;10.030;2023-03-23T02:17:12;56.87;47.92;86.38;;
77729;Laerm;68312;53.502;10.030;2023-03-23T02:23:21;52.70;46.19;79.87;;
77729;Laerm;68312;53.502;10.030;2023-03-23T02:29:51;55.54;47.24;88.10;;
77729;Laerm;68312;53.502;10.030;2023-03-23T02:37:00;53.38;47.10;84.72;;
77729;Laerm;68312;53.502;10.030;2023-03-23T02:39:35;52.74;46.44;81.33;;
77729;Laerm;68312;53.502;10.030;2023-03-23T02:42:09;55.27;47.83;81.95;;
77729;Laerm;68312;53.502;10.030;2023-03-23T02:44:42;61.70;48.35;96.52;;
77729;Laerm;68312;53.502;10.030;2023-03-23T02:47:18;59.50;47.75;91.37;;
77729;Laerm;68312;53.502;10.030;2023-03-23T02:49:51;51.67;46.74;77.21;;
77729;Laerm;68312;53.502;10.030;2023-03-23T02:52:26;50.77;47.09;73.09;;
77729;Laerm;68312;53.502;10.030;2023-03-23T02:54:55;50.43;46.69;57.94;;
77729;Laerm;68312;53.502;10.030;2023-03-23T02:57:24;54.19;46.00;85.08;;
77729;Laerm;68312;53.502;10.030;2023-03-23T02:59:51;49.68;44.30;75.32;;
77729;Laerm;68312;53.502;10.030;2023-03-23T03:02:35;50.78;46.38;67.92;;
77729;Laerm;68312;53.502;10.030;2023-03-23T03:05:51;49.48;44.91;57.94;;
77729;Laerm;68312;53.502;10.030;2023-03-23T03:08:45;49.19;44.99;53.05;;
77729;Laerm;68312;53.502;10.030;2023-03-23T03:11:18;48.74;45.25;56.63;;
77729;Laerm;68312;53.502;10.030;2023-03-23T03:14:08;48.08;44.56;54.98;;
77729;Laerm;68312;53.502;10.030;2023-03-23T03:16:46;48.97;44.62;55.24;;
77729;Laerm;68312;53.502;10.030;2023-03-23T03:19:28;48.53;45.02;55.58;;
77729;Laerm;68312;53.502;10.030;2023-03-23T03:21:58;48.09;44.84;52.57;;
77729;Laerm;68312;53.502;10.030;2023-03-23T03:24:30;49.56;44.06;66.44;;
77729;Laerm;68312;53.502;10.030;2023-03-23T03:27:01;48.32;43.53;55.96;;
77729;Laerm;68312;53.502;10.030;2023-03-23T03:29:35;50.32;46.01;57.39;;
77729;Laerm;68312;53.502;10.030;2023-03-23T03:32:06;49.59;44.92;60.15;;
77729;Laerm;68312;53.502;10.030;2023-03-23T03:34:34;48.27;44.68;66.56;;
77729;Laerm;68312;53.502;10.030;2023-03-23T03:37:00;50.01;45.90;58.29;;
77729;Laerm;68312;53.502;10.030;2023-03-23T03:39:27;50.11;46.71;55.08;;
77729;Laerm;68312;53.502;10.030;2023-03-23T03:41:53;50.15;46.35;54.61;;
77729;Laerm;68312;53.502;10.030;2023-03-23T03:44:20;51.30;45.57;59.18;;
77729;Laerm;68312;53.502;10.030;2023-03-23T03:46:45;50.03;45.99;55.69;;
77729;Laerm;68312;53.502;10.030;2023-03-23T03:49:11;50.67;47.06;57.46;;
77729;Laerm;68312;53.502;10.030;2023-03-23T03:51:40;50.89;47.27;55.24;;
77729;Laerm;68312;53.502;10.030;2023-03-23T03:54:06;51.75;48.39;56.47;;
77729;Laerm;68312;53.502;10.030;2023-03-23T03:56:35;51.20;47.94;54.43;;
77729;Laerm;68312;53.502;10.030;2023-03-23T03:59:02;52.42;47.73;65.02;;
77729;Laerm;68312;53.502;10.030;2023-03-23T04:01:28;49.07;45.39;54.95;;
77729;Laerm;68312;53.502;10.030;2023-03-23T04:03:54;49.81;46.42;53.60;;
77729;Laerm;68312;53.502;10.030;2023-03-23T04:06:20;51.19;47.68;59.76;;
77729;Laerm;68312;53.502;10.030;2023-03-23T04:08:46;50.50;47.16;61.56;;
77729;Laerm;68312;53.502;10.030;2023-03-23T04:11:15;50.78;46.55;59.19;;
77729;Laerm;68312;53.502;10.030;2023-03-23T04:13:41;51.05;46.75;54.33;;
77729;Laerm;68312;53.502;10.030;2023-03-23T04:16:08;51.00;47.00;63.80;;
77729;Laerm;68312;53.502;10.030;2023-03-23T04:18:35;50.11;46.72;55.06;;
77729;Laerm;68312;53.502;10.030;2023-03-23T04:21:04;50.56;47.56;53.84;;
77729;Laerm;68312;53.502;10.030;2023-03-23T04:23:32;52.02;48.32;57.53;;
77729;Laerm;68312;53.502;10.030;2023-03-23T04:26:02;51.18;48.19;57.99;;
77729;Laerm;68312;53.502;10.030;2023-03-23T04:28:29;50.69;47.65;55.70;;
77729;Laerm;68312;53.502;10.030;2023-03-23T04:31:00;50.13;46.55;53.86;;
77729;Laerm;68312;53.502;10.030;2023-03-23T04:33:29;52.77;48.26;67.22;;
77729;Laerm;68312;53.502;10.030;2023-03-23T04:36:00;50.74;47.35;55.99;;
77729;Laerm;68312;53.502;10.030;2023-03-23T04:38:28;51.40;47.25;61.99;;
77729;Laerm;68312;53.502;10.030;2023-03-23T04:40:53;51.47;48.36;58.92;;
77729;Laerm;68312;53.502;10.030;2023-03-23T04:43:22;51.51;48.59;60.33;;
77729;Laerm;68312;53.502;10.030;2023-03-23T04:45:58;51.81;48.54;60.68;;
77729;Laerm;68312;53.502;10.030;2023-03-23T04:48:30;54.52;49.27;68.97;;
77729;Laerm;68312;53.502;10.030;2023-03-23T04:51:01;53.83;49.01;69.89;;
77729;Laerm;68312;53.502;10.030;2023-03-23T04:53:29;53.44;48.83;67.79;;
77729;Laerm;68312;53.502;10.030;2023-03-23T04:55:55;54.50;50.52;64.49;;
77729;Laerm;68312;53.502;10.030;2023-03-23T04:58:20;51.78;47.98;60.58;;
77729;Laerm;68312;53.502;10.030;2023-03-23T05:00:47;53.12;49.27;66.46;;
77729;Laerm;68312;53.502;10.030;2023-03-23T05:03:18;53.01;49.01;62.06;;
77729;Laerm;68312;53.502;10.030;2023-03-23T05:05:46;52.76;49.50;61.44;;
77729;Laerm;68312;53.502;10.030;2023-03-23T05:08:27;52.82;48.80;64.90;;
77729;Laerm;68312;53.502;10.030;2023-03-23T05:10:59;53.83;49.05;63.72;;
77729;Laerm;68312;53.502;10.030;2023-03-23T05:13:27;52.48;48.61;63.96;;
77729;Laerm;68312;53.502;10.030;2023-03-23T05:15:54;57.90;48.78;73.76;;
77729;Laerm;68312;53.502;10.030;2023-03-23T05:18:20;53.17;49.21;64.58;;
77729;Laerm;68312;53.502;10.030;2023-03-23T05:20:46;53.21;49.72;59.15;;
77729;Laerm;68312;53.502;10.030;2023-03-23T05:23:13;53.52;49.45;69.70;;
77729;Laerm;68312;53.502;10.030;2023-03-23T05:25:41;52.88;49.36;60.17;;
77729;Laerm;68312;53.502;10.030;2023-03-23T05:28:10;53.44;49.68;58.81;;
77729;Laerm;68312;53.502;10.030;2023-03-23T05:30:38;57.00;49.19;70.57;;
77729;Laerm;68312;53.502;10.030;2023-03-23T05:33:04;54.05;50.17;67.90;;
77729;Laerm;68312;53.502;10.030;2023-03-23T05:35:31;54.21;50.13;60.17;;
77729;Laerm;68312;53.502;10.030;2023-03-23T05:37:56;56.90;50.01;74.24;;
77729;Laerm;68312;53.502;10.030;2023-03-23T05:40:23;59.48;49.61;74.81;;
77729;Laerm;68312;53.502;10.030;2023-03-23T05:42:52;53.60;49.61;67.17;;
77729;Laerm;68312;53.502;10.030;2023-03-23T05:45:18;54.78;49.84;67.00;;
77729;Laerm;68312;53.502;10.030;2023-03-23T05:47:44;54.66;48.76;67.73;;
77729;Laerm;68312;53.502;10.030;2023-03-23T05:50:11;52.64;49.50;59.10;;
77729;Laerm;68312;53.502;10.030;2023-03-23T05:52:39;54.54;50.50;75.97;;
77729;Laerm;68312;53.502;10.030;2023-03-23T05:55:07;54.03;50.50;62.25;;
77729;Laerm;68312;53.502;10.030;2023-03-23T05:57:34;53.06;49.30;60.59;;
77729;Laerm;68312;53.502;10.030;2023-03-23T06:00:04;53.06;49.86;64.78;;
77729;Laerm;68312;53.502;10.030;2023-03-23T06:02:44;54.40;49.62;67.72;;
77729;Laerm;68312;53.502;10.030;2023-03-23T06:05:15;53.70;50.31;61.01;;
77729;Laerm;68312;53.502;10.030;2023-03-23T06:07:42;54.28;49.99;64.08;;
77729;Laerm;68312;53.502;10.030;2023-03-23T06:10:09;52.88;50.18;57.52;;
77729;Laerm;68312;53.502;10.030;2023-03-23T06:12:38;53.36;49.70;60.10;;
77729;Laerm;68312;53.502;10.030;2023-03-23T06:15:07;53.55;50.56;61.17;;
77729;Laerm;68312;53.502;10.030;2023-03-23T06:17:34;53.42;50.09;60.93;;
77729;Laerm;68312;53.502;10.030;2023-03-23T06:20:05;53.63;49.56;59.00;;
77729;Laerm;68312;53.502;10.030;2023-03-23T06:22:39;54.00;50.49;62.71;;
77729;Laerm;68312;53.502;10.030;2023-03-23T06:25:10;53.96;50.39;59.82;;
77729;Laerm;68312;53.502;10.030;2023-03-23T06:27:41;53.53;49.24;62.95;;
77729;Laerm;68312;53.502;10.030;2023-03-23T06:30:07;53.88;49.98;62.65;;
77729;Laerm;68312;53.502;10.030;2023-03-23T06:32:38;53.88;50.03;62.59;;
77729;Laerm;68312;53.502;10.030;2023-03-23T06:35:07;53.14;48.95;61.93;;
77729;Laerm;68312;53.502;10.030;2023-03-23T06:37:36;53.66;49.94;57.71;;
77729;Laerm;68312;53.502;10.030;2023-03-23T06:40:04;53.39;50.34;57.41;;
77729;Laerm;68312;53.502;10.030;2023-03-23T06:42:33;54.80;49.93;67.23;;
77729;Laerm;68312;53.502;10.030;2023-03-23T06:45:05;54.39;50.41;65.94;;
77729;Laerm;68312;53.502;10.030;2023-03-23T06:47:31;54.09;50.29;64.46;;
77729;Laerm;68312;53.502;10.030;2023-03-23T06:49:58;54.25;50.98;61.48;;
77729;Laerm;68312;53.502;10.030;2023-03-23T06:52:25;53.39;50.25;59.54;;
77729;Laerm;68312;53.502;10.030;2023-03-23T06:54:52;54.74;50.56;64.70;;
77729;Laerm;68312;53.502;10.030;2023-03-23T06:57:19;53.90;50.65;60.28;;
77729;Laerm;68312;53.502;10.030;2023-03-23T06:59:45;53.68;50.08;60.43;;
77729;Laerm;68312;53.502;10.030;2023-03-23T07:02:13;55.37;50.62;68.53;;
77729;Laerm;68312;53.502;10.030;2023-03-23T07:04:40;54.84;51.23;67.20;;
77729;Laerm;68312;53.502;10.030;2023-03-23T07:07:10;53.82;50.43;61.64;;
77729;Laerm;68312;53.502;10.030;2023-03-23T07:09:38;55.11;50.53;67.67;;
77729;Laerm;68312;53.502;10.030;2023-03-23T07:12:05;53.43;50.55;58.68;;
77729;Laerm;68312;53.502;10.030;2023-03-23T07:14:31;53.33;50.03;60.37;;
77729;Laerm;68312;53.502;10.030;2023-03-23T07:16:59;54.44;50.41;65.81;;
77729;Laerm;68312;53.502;10.030;2023-03-23T07:19:26;53.98;50.13;63.01;;
77729;Laerm;68312;53.502;10.030;2023-03-23T07:21:51;53.31;49.74;60.82;;
77729;Laerm;68312;53.502;10.030;2023-03-23T07:24:17;54.44;50.23;63.84;;
77729;Laerm;68312;53.502;10.030;2023-03-23T07:26:43;53.70;49.53;74.56;;
77729;Laerm;68312;53.502;10.030;2023-03-23T07:29:12;52.29;47.99;59.24;;
77729;Laerm;68312;53.502;10.030;2023-03-23T07:31:37;53.18;48.33;68.16;;
77729;Laerm;68312;53.502;10.030;2023-03-23T07:34:03;53.16;48.89;64.16;;
77729;Laerm;68312;53.502;10.030;2023-03-23T07:36:29;55.71;50.74;66.43;;
77729;Laerm;68312;53.502;10.030;2023-03-23T07:38:55;57.35;50.39;68.70;;
77729;Laerm;68312;53.502;10.030;2023-03-23T07:41:22;59.22;51.76;75.19;;
77729;Laerm;68312;53.502;10.030;2023-03-23T07:43:48;53.88;50.29;65.33;;
77729;Laerm;68312;53.502;10.030;2023-03-23T07:46:13;55.02;50.10;80.79;;
77729;Laerm;68312;53.502;10.030;2023-03-23T07:48:39;53.22;49.30;64.32;;
77729;Laerm;68312;53.502;10.030;2023-03-23T07:51:06;53.65;49.52;64.62;;
77729;Laerm;68312;53.502;10.030;2023-03-23T07:53:33;53.50;48.89;65.47;;
77729;Laerm;68312;53.502;10.030;2023-03-23T07:55:58;54.28;49.75;65.63;;
77729;Laerm;68312;53.502;10.030;2023-03-23T07:58:24;52.91;49.00;62.32;;
77729;Laerm;68312;53.502;10.030;2023-03-23T08:00:52;52.47;49.50;57.71;;
77729;Laerm;68312;53.502;10.030;2023-03-23T08:03:18;53.09;49.22;61.38;;
77729;Laerm;68312;53.502;10.030;2023-03-23T08:05:44;53.28;49.18;58.73;;
77729;Laerm;68312;53.502;10.030;2023-03-23T08:08:10;54.29;49.07;66.51;;
77729;Laerm;68312;53.502;10.030;2023-03-23T08:10:36;55.99;50.35;71.05;;
77729;Laerm;68312;53.502;10.030;2023-03-23T08:13:03;55.51;50.38;76.76;;
77729;Laerm;68312;53.502;10.030;2023-03-23T08:15:29;61.82;51.41;86.13;;
77729;Laerm;68312;53.502;10.030;2023-03-23T08:17:58;54.39;49.30;82.79;;
77729;Laerm;68312;53.502;10.030;2023-03-23T08:20:24;54.90;49.43;83.04;;
77729;Laerm;68312;53.502;10.030;2023-03-23T08:22:56;55.81;48.70;84.15;;
77729;Laerm;68312;53.502;10.030;2023-03-23T08:25:23;55.47;48.30;80.68;;
77729;Laerm;68312;53.502;10.030;2023-03-23T08:27:52;55.06;48.55;82.09;;
77729;Laerm;68312;53.502;10.030;2023-03-23T08:30:21;55.65;48.47;87.72;;
77729;Laerm;68312;53.502;10.030;2023-03-23T08:32:49;52.32;47.82;66.96;;
77729;Laerm;68312;53.502;10.030;2023-03-23T08:35:16;52.59;47.69;63.92;;
77729;Laerm;68312;53.502;10.030;2023-03-23T08:37:43;52.12;48.47;71.09;;
77729;Laerm;68312;53.502;10.030;2023-03-23T08:40:13;54.73;48.26;76.22;;
77729;Laerm;68312;53.502;10.030;2023-03-23T08:42:43;54.65;48.66;84.94;;
77729;Laerm;68312;53.502;10.030;2023-03-23T08:45:17;61.17;49.66;93.81;;
77729;Laerm;68312;53.502;10.030;2023-03-23T08:47:44;53.81;48.60;70.85;;
77729;Laerm;68312;53.502;10.030;2023-03-23T08:50:16;51.82;48.30;60.45;;
77729;Laerm;68312;53.502;10.030;2023-03-23T08:52:43;54.81;47.89;67.01;;
77729;Laerm;68312;53.502;10.030;2023-03-23T08:55:09;52.93;48.60;61.84;;
77729;Laerm;68312;53.502;10.030;2023-03-23T08:57:36;52.31;48.70;62.44;;
77729;Laerm;68312;53.502;10.030;2023-03-23T09:00:07;53.43;48.95;63.27;;
77729;Laerm;68312;53.502;10.030;2023-03-23T09:02:51;55.13;48.78;68.31;;
77729;Laerm;68312;53.502;10.030;2023-03-23T09:05:22;52.09;47.95;66.35;;
77729;Laerm;68312;53.502;10.030;2023-03-23T09:07:57;51.69;46.51;67.78;;
77729;Laerm;68312;53.502;10.030;2023-03-23T09:10:32;51.81;47.94;61.35;;
77729;Laerm;68312;53.502;10.030;2023-03-23T09:12:58;52.10;47.95;68.51;;
77729;Laerm;68312;53.502;10.030;2023-03-23T09:15:23;52.51;48.60;65.49;;
77729;Laerm;68312;53.502;10.030;2023-03-23T09:17:52;52.94;47.23;69.13;;
77729;Laerm;68312;53.502;10.030;2023-03-23T09:20:25;51.31;46.97;60.25;;
77729;Laerm;68312;53.502;10.030;2023-03-23T09:22:57;52.47;47.09;72.48;;
77729;Laerm;68312;53.502;10.030;2023-03-23T09:25:27;51.53;47.16;63.33;;
77729;Laerm;68312;53.502;10.030;2023-03-23T09:27:57;51.59;47.64;60.05;;
77729;Laerm;68312;53.502;10.030;2023-03-23T09:30:28;50.95;47.12;60.94;;
77729;Laerm;68312;53.502;10.030;2023-03-23T09:32:56;51.35;47.09;61.86;;
77729;Laerm;68312;53.502;10.030;2023-03-23T09:35:23;53.95;47.63;76.28;;
77729;Laerm;68312;53.502;10.030;2023-03-23T09:37:52;51.27;47.21;61.44;;
77729;Laerm;68312;53.502;10.030;2023-03-23T09:43:49;49.93;46.31;58.29;;
77729;Laerm;68312;53.502;10.030;2023-03-23T09:46:46;52.48;47.90;65.34;;
77729;Laerm;68312;53.502;10.030;2023-03-23T09:49:24;51.14;46.71;61.08;;
77729;Laerm;68312;53.502;10.030;2023-03-23T09:52:10;51.21;46.32;65.82;;
77729;Laerm;68312;53.502;10.030;2023-03-23T09:54:46;51.53;47.36;61.32;;
77729;Laerm;68312;53.502;10.030;2023-03-23T09:58:15;49.69;46.62;56.53;;
77729;Laerm;68312;53.502;10.030;2023-03-23T10:01:00;50.09;45.87;61.00;;
77729;Laerm;68312;53.502;10.030;2023-03-23T10:03:39;53.04;46.08;82.01;;
77729;Laerm;68312;53.502;10.030;2023-03-23T10:06:11;49.10;46.17;54.36;;
77729;Laerm;68312;53.502;10.030;2023-03-23T10:08:47;49.78;46.07;55.91;;
77729;Laerm;68312;53.502;10.030;2023-03-23T10:14:37;52.71;47.20;58.72;;
77729;Laerm;68312;53.502;10.030;2023-03-23T10:26:08;52.15;46.39;60.15;;
77729;Laerm;68312;53.502;10.030;2023-03-23T10:28:44;55.47;47.51;69.87;;
77729;Laerm;68312;53.502;10.030;2023-03-23T10:31:23;49.45;46.20;56.57;;
77729;Laerm;68312;53.502;10.030;2023-03-23T10:33:56;49.41;45.25;55.84;;
77729;Laerm;68312;53.502;10.030;2023-03-23T10:36:29;53.70;47.98;63.58;;
77729;Laerm;68312;53.502;10.030;2023-03-23T10:39:19;53.41;46.06;73.34;;
77729;Laerm;68312;53.502;10.030;2023-03-23T10:41:45;52.03;47.43;63.44;;
77729;Laerm;68312;53.502;10.030;2023-03-23T10:44:23;52.64;46.91;65.81;;
77729;Laerm;68312;53.502;10.030;2023-03-23T10:47:01;51.85;47.82;71.57;;
77729;Laerm;68312;53.502;10.030;2023-03-23T10:49:48;51.98;48.57;58.36;;
77729;Laerm;68312;53.502;10.030;2023-03-23T10:52:41;52.89;46.60;69.54;;
77729;Laerm;68312;53.502;10.030;2023-03-23T10:55:20;50.47;46.25;60.31;;
77729;Laerm;68312;53.502;10.030;2023-03-23T10:58:09;50.34;46.38;59.92;;
77729;Laerm;68312;53.502;10.030;2023-03-23T11:00:46;53.31;44.99;70.65;;
77729;Laerm;68312;53.502;10.030;2023-03-23T11:06:00;49.13;45.74;54.39;;
77729;Laerm;68312;53.502;10.030;2023-03-23T11:08:38;52.29;47.02;65.28;;
77729;Laerm;68312;53.502;10.030;2023-03-23T11:11:20;50.88;47.27;58.46;;
77729;Laerm;68312;53.502;10.030;2023-03-23T11:14:41;50.19;45.88;57.63;;
77729;Laerm;68312;53.502;10.030;2023-03-23T11:16:57;50.90;47.05;75.06;;
77729;Laerm;68312;53.502;10.030;2023-03-23T11:19:33;53.17;47.00;69.61;;
77729;Laerm;68312;53.502;10.030;2023-03-23T11:24:44;49.56;46.59;53.00;;
77729;Laerm;68312;53.502;10.030;2023-03-23T11:27:15;50.62;46.60;64.93;;
77729;Laerm;68312;53.502;10.030;2023-03-23T11:29:55;51.35;45.81;59.30;;
77729;Laerm;68312;53.502;10.030;2023-03-23T11:32:29;48.93;44.45;60.33;;
77729;Laerm;68312;53.502;10.030;2023-03-23T11:35:01;50.75;46.17;60.68;;
77729;Laerm;68312;53.502;10.030;2023-03-23T11:37:51;53.48;45.50;69.32;;
77729;Laerm;68312;53.502;10.030;2023-03-23T11:40:29;50.36;45.94;57.33;;
77729;Laerm;68312;53.502;10.030;2023-03-23T11:43:12;49.83;45.59;58.53;;
77729;Laerm;68312;53.502;10.030;2023-03-23T11:45:48;50.33;45.46;62.71;;
77729;Laerm;68312;53.502;10.030;2023-03-23T11:48:51;49.30;45.86;57.26;;
77729;Laerm;68312;53.502;10.030;2023-03-23T11:52:13;49.34;45.03;57.45;;
77729;Laerm;68312;53.502;10.030;2023-03-23T11:54:56;49.93;46.68;57.14;;
77729;Laerm;68312;53.502;10.030;2023-03-23T11:57:27;50.40;45.55;60.74;;
77729;Laerm;68312;53.502;10.030;2023-03-23T11:59:56;52.50;47.47;67.46;;
77729;Laerm;68312;53.502;10.030;2023-03-23T12:03:28;55.26;47.71;68.74;;
77729;Laerm;68312;53.502;10.030;2023-03-23T12:06:09;50.73;46.24;61.49;;
77729;Laerm;68312;53.502;10.030;2023-03-23T12:12:12;49.30;45.34;64.81;;
77729;Laerm;68312;53.502;10.030;2023-03-23T12:17:51;50.61;46.63;59.41;;
77729;Laerm;68312;53.502;10.030;2023-03-23T12:24:14;49.92;46.47;61.18;;
77729;Laerm;68312;53.502;10.030;2023-03-23T12:30:32;52.40;46.47;83.85;;
77729;Laerm;68312;53.502;10.030;2023-03-23T12:33:45;49.69;46.46;65.16;;
77729;Laerm;68312;53.502;10.030;2023-03-23T12:36:45;49.55;46.19;66.31;;
77729;Laerm;68312;53.502;10.030;2023-03-23T12:43:05;50.11;46.44;58.13;;
77729;Laerm;68312;53.502;10.030;2023-03-23T12:46:18;49.82;45.58;66.48;;
77729;Laerm;68312;53.502;10.030;2023-03-23T12:49:17;49.39;44.94;62.83;;
77729;Laerm;68312;53.502;10.030;2023-03-23T12:52:15;51.01;46.73;62.94;;
77729;Laerm;68312;53.502;10.030;2023-03-23T12:55:15;49.21;44.42;61.28;;
77729;Laerm;68312;53.502;10.030;2023-03-23T12:57:58;75.37;45.64;99.66;;
77729;Laerm;68312;53.502;10.030;2023-03-23T13:00:57;70.40;45.81;100.70;;
77729;Laerm;68312;53.502;10.030;2023-03-23T13:03:46;50.97;46.09;65.20;;
77729;Laerm;68312;53.502;10.030;2023-03-23T13:06:53;49.16;45.00;63.10;;
77729;Laerm;68312;53.502;10.030;2023-03-23T13:09:54;49.34;43.89;59.62;;
77729;Laerm;68312;53.502;10.030;2023-03-23T13:12:23;50.80;46.16;61.87;;
77729;Laerm;68312;53.502;10.030;2023-03-23T13:15:26;51.73;45.72;66.89;;
77729;Laerm;68312;53.502;10.030;2023-03-23T13:18:34;51.37;46.26;68.69;;
77729;Laerm;68312;53.502;10.030;2023-03-23T13:24:08;50.34;46.55;59.72;;
77729;Laerm;68312;53.502;10.030;2023-03-23T13:26:42;52.81;48.27;70.18;;
77729;Laerm;68312;53.502;10.030;2023-03-23T13:29:16;51.37;45.34;66.54;;
77729;Laerm;68312;53.502;10.030;2023-03-23T13:31:48;52.46;45.70;69.43;;
77729;Laerm;68312;53.502;10.030;2023-03-23T13:34:47;51.84;48.01;61.59;;
77729;Laerm;68312;53.502;10.030;2023-03-23T13:39:58;53.32;47.89;75.30;;
77729;Laerm;68312;53.502;10.030;2023-03-23T13:42:29;53.53;48.30;63.08;;
77729;Laerm;68312;53.502;10.030;2023-03-23T13:50:58;54.37;47.51;77.23;;
77729;Laerm;68312;53.502;10.030;2023-03-23T13:53:35;55.36;48.14;69.29;;
77729;Laerm;68312;53.502;10.030;2023-03-23T13:56:21;53.11;47.32;64.35;;
77729;Laerm;68312;53.502;10.030;2023-03-23T13:59:03;54.13;47.19;69.52;;
77729;Laerm;68312;53.502;10.030;2023-03-23T14:01:41;53.62;47.85;69.59;;
77729;Laerm;68312;53.502;10.030;2023-03-23T14:04:16;53.44;46.75;66.96;;
77729;Laerm;68312;53.502;10.030;2023-03-23T14:06:46;50.75;46.55;73.58;;
77729;Laerm;68312;53.502;10.030;2023-03-23T14:09:33;56.27;48.36;89.67;;
77729;Laerm;68312;53.502;10.030;2023-03-23T14:12:16;56.13;48.27;82.21;;
77729;Laerm;68312;53.502;10.030;2023-03-23T14:14:57;67.69;49.84;96.57;;
77729;Laerm;68312;53.502;10.030;2023-03-23T14:17:33;69.86;50.44;95.49;;
77729;Laerm;68312;53.502;10.030;2023-03-23T14:20:00;52.50;46.60;68.70;;
77729;Laerm;68312;53.502;10.030;2023-03-23T14:22:37;51.11;45.89;66.15;;
77729;Laerm;68312;53.502;10.030;2023-03-23T14:25:18;50.17;43.64;66.76;;
77729;Laerm;68312;53.502;10.030;2023-03-23T14:27:47;50.85;43.56;66.00;;
77729;Laerm;68312;53.502;10.030;2023-03-23T14:30:21;49.30;43.20;69.56;;
77729;Laerm;68312;53.502;10.030;2023-03-23T14:32:47;53.52;44.16;69.18;;
77729;Laerm;68312;53.502;10.030;2023-03-23T14:35:31;49.06;44.04;59.27;;
77729;Laerm;68312;53.502;10.030;2023-03-23T14:37:58;48.50;44.73;60.18;;
77729;Laerm;68312;53.502;10.030;2023-03-23T14:40:28;51.55;44.39;67.18;;
77729;Laerm;68312;53.502;10.030;2023-03-23T14:42:57;52.03;45.35;64.38;;
77729;Laerm;68312;53.502;10.030;2023-03-23T14:45:24;50.36;45.14;61.17;;
77729;Laerm;68312;53.502;10.030;2023-03-23T14:48:02;49.55;44.80;59.50;;
77729;Laerm;68312;53.502;10.030;2023-03-23T14:50:41;50.60;44.52;63.80;;
77729;Laerm;68312;53.502;10.030;2023-03-23T14:53:35;49.84;44.67;63.01;;
77729;Laerm;68312;53.502;10.030;2023-03-23T14:56:16;50.76;44.34;66.54;;
77729;Laerm;68312;53.502;10.030;2023-03-23T14:58:51;49.13;44.45;60.11;;
77729;Laerm;68312;53.502;10.030;2023-03-23T15:01:34;48.02;44.38;60.17;;
77729;Laerm;68312;53.502;10.030;2023-03-23T15:04:17;50.14;44.22;61.84;;
77729;Laerm;68312;53.502;10.030;2023-03-23T15:06:54;47.76;44.95;56.29;;
77729;Laerm;68312;53.502;10.030;2023-03-23T15:09:24;51.96;44.95;64.43;;
77729;Laerm;68312;53.502;10.030;2023-03-23T15:11:57;51.53;45.79;59.81;;